Coventry, Vermont
Current Conditions -  °F | °C
As of 9:35 PM on Thursday 27 Nov 2014 (Local Time) from KEFK Reporting Station
Overcast Overcast  
Wind Chill: 23°   Ceiling: 1900
Heat Index: 23°   Visibility: 10mi
Dew Point: 18°   Wind: 0mph
Humidity: 80%   Direction: NA
Pressure: 30.02"   Gusts: NA
Location:  44.87°N, 72.27°W
Report Text: KEFK 280235Z AUTO 00000KT 10SM OVC019 M05/M08 A3002 RMK AO2 T10511080
Loading
Personal Weather Stations






























Interactive Weather Map New forecast layout! Learn more

10-Day Weather Forecast

Advertisements
Track Severe Weather on mobile